Patos — WDF6110 — position and weather

sailwx.info

Track history (hours):
 
Tides and Currents Weather Stations Pressure Air Temp Water Temp Dewpoint Dewpoint Depression Visibility Wind Speed Wind Dir Waves Ship Positions

Patos

Owner: Demelza Charters LLP, Bellingham, WA. More information available from US FCC via Universal Licensing System and Coast Guard Vessel Documentation Center.

Last reported at 2018-Apr-22 16:45 UTC. Time now 2018-Apr-22 20:19 UTC.
Position N 48°36' W 122°45'.

Length 16 m.

Type: Pleasure craft. MMSI: 367470750.

Date/timePositionNaut miles runAvg speedWind from/ knotsBaromVisibWave heightAir tempDewpointWater temp
2018-Apr-22 16:45N 48°36' W 122°45'2 8.4
2018-Apr-22 16:29N 48°35' W 122°48'4 8.3
2018-Apr-22 16:00N 48°34' W 122°54'4 8.4
2018-Apr-22 15:29N 48°32' W 122°60'1 0.1
2018-Apr-22 04:55N 48°32' W 123°01'0 0.0
2018-Apr-22 04:19N 48°32' W 123°01'0 0.0
2018-Apr-22 03:49N 48°32' W 123°01'0 0.0
2018-Apr-22 03:13N 48°32' W 123°01'0 0.0
2018-Apr-22 02:49N 48°32' W 123°01'0 0.0
2018-Apr-22 02:25N 48°32' W 123°01'0 0.0
2018-Apr-22 01:55N 48°32' W 123°01'0 0.0
2018-Apr-22 01:19N 48°32' W 123°01'0 0.0
2018-Apr-22 00:55N 48°32' W 123°01'0 0.0
2018-Apr-22 00:25N 48°32' W 123°01'0 0.0
2018-Apr-21 23:58N 48°32' W 123°01'0 0.0
2018-Apr-21 23:30N 48°32' W 123°01'  
2018-Apr-16 16:58N 48°36' W 122°44'3 7.2
2018-Apr-16 16:29N 48°35' W 122°49'4 7.8
2018-Apr-16 16:00N 48°34' W 122°54'4 8.5
2018-Apr-16 15:30N 48°32' W 123°00'0 0.8
2018-Apr-16 15:00N 48°32' W 123°01'0 0.0
2018-Apr-16 14:21N 48°32' W 123°01'0 0.0
2018-Apr-16 14:00N 48°32' W 123°01'0 0.0
2018-Apr-16 13:30N 48°32' W 123°01'0 0.0
2018-Apr-16 12:51N 48°32' W 123°01'0 0.0
2018-Apr-16 12:21N 48°32' W 123°01'0 0.0
2018-Apr-16 11:51N 48°32' W 123°01'0 0.0
2018-Apr-16 11:21N 48°32' W 123°01'0 0.0
2018-Apr-16 10:51N 48°32' W 123°01'0 0.0
2018-Apr-16 10:21N 48°32' W 123°01'0 0.0
2018-Apr-16 09:54N 48°32' W 123°01'0 0.0
2018-Apr-16 09:30N 48°32' W 123°01'0 0.0
2018-Apr-16 09:00N 48°32' W 123°01'0 0.0
2018-Apr-16 08:30N 48°32' W 123°01'0 0.0
2018-Apr-16 08:00N 48°32' W 123°01'0 0.0
2018-Apr-16 07:30N 48°32' W 123°01'0 0.0
2018-Apr-16 07:00N 48°32' W 123°01'0 0.0
2018-Apr-16 06:30N 48°32' W 123°01'0 0.0
2018-Apr-16 05:54N 48°32' W 123°01'0 0.0
2018-Apr-16 05:30N 48°32' W 123°01'0 0.0
2018-Apr-16 05:00N 48°32' W 123°01'0 0.0
2018-Apr-16 04:30N 48°32' W 123°01'0 0.0
2018-Apr-16 04:00N 48°32' W 123°01'0 0.0
2018-Apr-16 03:30N 48°32' W 123°01'0 0.0
2018-Apr-16 02:51N 48°32' W 123°01'0 0.0
2018-Apr-16 02:30N 48°32' W 123°01'0 0.0
2018-Apr-16 02:00N 48°32' W 123°01'0 0.0
2018-Apr-16 01:24N 48°32' W 123°01'0 0.0
2018-Apr-16 00:42N 48°32' W 123°01'0 0.0
2018-Apr-16 00:30N 48°32' W 123°01'0 0.0
2018-Apr-16 00:00N 48°32' W 123°01'0 0.0
2018-Apr-15 23:30N 48°32' W 123°01'1 2.0
2018-Apr-15 23:00N 48°33' W 123°00'  
2018-Apr-13 09:24N 48°45' W 122°30'  
Track history (hours):
 
Tides and Currents Weather Stations Pressure Air Temp Water Temp Dewpoint Dewpoint Depression Visibility Wind Speed Wind Dir Waves Ship Positions

Patos

Owner: Demelza Charters LLP, Bellingham, WA. More information available from US FCC via Universal Licensing System and Coast Guard Vessel Documentation Center.

Last reported at 2018-Apr-22 16:45 UTC. Time now 2018-Apr-22 20:19 UTC.
Position N 48°36' W 122°45'.

Length 16 m.

Type: Pleasure craft. MMSI: 367470750.

Date/timePositionNaut miles runAvg speedWind from/ knotsBaromVisibWave heightAir tempDewpointWater temp
2018-Apr-22 16:45N 48°36' W 122°45'2 8.4
2018-Apr-22 16:29N 48°35' W 122°48'4 8.3
2018-Apr-22 16:00N 48°34' W 122°54'4 8.4
2018-Apr-22 15:29N 48°32' W 122°60'1 0.1
2018-Apr-22 04:55N 48°32' W 123°01'0 0.0
2018-Apr-22 04:19N 48°32' W 123°01'0 0.0
2018-Apr-22 03:49N 48°32' W 123°01'0 0.0
2018-Apr-22 03:13N 48°32' W 123°01'0 0.0
2018-Apr-22 02:49N 48°32' W 123°01'0 0.0
2018-Apr-22 02:25N 48°32' W 123°01'0 0.0
2018-Apr-22 01:55N 48°32' W 123°01'0 0.0
2018-Apr-22 01:19N 48°32' W 123°01'0 0.0
2018-Apr-22 00:55N 48°32' W 123°01'0 0.0
2018-Apr-22 00:25N 48°32' W 123°01'0 0.0
2018-Apr-21 23:58N 48°32' W 123°01'0 0.0
2018-Apr-21 23:30N 48°32' W 123°01'  
2018-Apr-16 16:58N 48°36' W 122°44'3 7.2
2018-Apr-16 16:29N 48°35' W 122°49'4 7.8
2018-Apr-16 16:00N 48°34' W 122°54'4 8.5
2018-Apr-16 15:30N 48°32' W 123°00'0 0.8
2018-Apr-16 15:00N 48°32' W 123°01'0 0.0
2018-Apr-16 14:21N 48°32' W 123°01'0 0.0
2018-Apr-16 14:00N 48°32' W 123°01'0 0.0
2018-Apr-16 13:30N 48°32' W 123°01'0 0.0
2018-Apr-16 12:51N 48°32' W 123°01'0 0.0
2018-Apr-16 12:21N 48°32' W 123°01'0 0.0
2018-Apr-16 11:51N 48°32' W 123°01'0 0.0
2018-Apr-16 11:21N 48°32' W 123°01'0 0.0
2018-Apr-16 10:51N 48°32' W 123°01'0 0.0
2018-Apr-16 10:21N 48°32' W 123°01'0 0.0
2018-Apr-16 09:54N 48°32' W 123°01'0 0.0
2018-Apr-16 09:30N 48°32' W 123°01'0 0.0
2018-Apr-16 09:00N 48°32' W 123°01'0 0.0
2018-Apr-16 08:30N 48°32' W 123°01'0 0.0
2018-Apr-16 08:00N 48°32' W 123°01'0 0.0
2018-Apr-16 07:30N 48°32' W 123°01'0 0.0
2018-Apr-16 07:00N 48°32' W 123°01'0 0.0
2018-Apr-16 06:30N 48°32' W 123°01'0 0.0
2018-Apr-16 05:54N 48°32' W 123°01'0 0.0
2018-Apr-16 05:30N 48°32' W 123°01'0 0.0
2018-Apr-16 05:00N 48°32' W 123°01'0 0.0
2018-Apr-16 04:30N 48°32' W 123°01'0 0.0
2018-Apr-16 04:00N 48°32' W 123°01'0 0.0
2018-Apr-16 03:30N 48°32' W 123°01'0 0.0
2018-Apr-16 02:51N 48°32' W 123°01'0 0.0
2018-Apr-16 02:30N 48°32' W 123°01'0 0.0
2018-Apr-16 02:00N 48°32' W 123°01'0 0.0
2018-Apr-16 01:24N 48°32' W 123°01'0 0.0
2018-Apr-16 00:42N 48°32' W 123°01'0 0.0
2018-Apr-16 00:30N 48°32' W 123°01'0 0.0
2018-Apr-16 00:00N 48°32' W 123°01'0 0.0
2018-Apr-15 23:30N 48°32' W 123°01'1 2.0
2018-Apr-15 23:00N 48°33' W 123°00'  
2018-Apr-13 09:24N 48°45' W 122°30'  

Dump ship's entire track history